sensor_id;sensor_type;location;lat;lon;timestamp;temperature;humidity
17066;DHT22;23120;52.336;21.182;2022-09-21T00:01:24;8.90;93.20
17066;DHT22;23120;52.336;21.182;2022-09-21T00:03:54;8.90;93.10
17066;DHT22;23120;52.336;21.182;2022-09-21T00:06:22;8.90;93.10
17066;DHT22;23120;52.336;21.182;2022-09-21T00:08:50;8.90;93.10
17066;DHT22;23120;52.336;21.182;2022-09-21T00:11:19;9.00;93.30
17066;DHT22;23120;52.336;21.182;2022-09-21T00:13:47;9.00;93.40
17066;DHT22;23120;52.336;21.182;2022-09-21T00:16:17;9.00;93.20
17066;DHT22;23120;52.336;21.182;2022-09-21T00:18:46;9.00;93.30
17066;DHT22;23120;52.336;21.182;2022-09-21T00:21:15;9.00;93.30
17066;DHT22;23120;52.336;21.182;2022-09-21T00:23:43;9.00;93.40
17066;DHT22;23120;52.336;21.182;2022-09-21T00:26:12;9.10;93.40
17066;DHT22;23120;52.336;21.182;2022-09-21T00:28:39;9.00;93.30
17066;DHT22;23120;52.336;21.182;2022-09-21T00:31:08;9.10;93.70
17066;DHT22;23120;52.336;21.182;2022-09-21T00:33:36;9.10;93.50
17066;DHT22;23120;52.336;21.182;2022-09-21T00:36:04;9.10;93.60
17066;DHT22;23120;52.336;21.182;2022-09-21T00:38:34;9.10;93.60
17066;DHT22;23120;52.336;21.182;2022-09-21T00:41:02;9.10;93.60
17066;DHT22;23120;52.336;21.182;2022-09-21T00:43:33;9.10;93.90
17066;DHT22;23120;52.336;21.182;2022-09-21T00:46:02;9.10;93.70
17066;DHT22;23120;52.336;21.182;2022-09-21T00:48:30;9.20;93.70
17066;DHT22;23120;52.336;21.182;2022-09-21T00:51:00;9.20;93.70
17066;DHT22;23120;52.336;21.182;2022-09-21T00:53:28;9.20;93.80
17066;DHT22;23120;52.336;21.182;2022-09-21T00:55:58;9.20;93.80
17066;DHT22;23120;52.336;21.182;2022-09-21T00:58:29;9.20;93.70
17066;DHT22;23120;52.336;21.182;2022-09-21T01:00:57;9.20;93.60
17066;DHT22;23120;52.336;21.182;2022-09-21T01:03:26;9.20;93.90
17066;DHT22;23120;52.336;21.182;2022-09-21T01:05:53;9.20;93.70
17066;DHT22;23120;52.336;21.182;2022-09-21T01:08:21;9.30;93.90
17066;DHT22;23120;52.336;21.182;2022-09-21T01:11:06;9.30;93.70
17066;DHT22;23120;52.336;21.182;2022-09-21T01:13:49;9.30;93.90
17066;DHT22;23120;52.336;21.182;2022-09-21T01:16:21;9.30;93.90
17066;DHT22;23120;52.336;21.182;2022-09-21T01:18:57;9.30;94.00
17066;DHT22;23120;52.336;21.182;2022-09-21T01:21:29;9.40;94.10
17066;DHT22;23120;52.336;21.182;2022-09-21T01:24:22;9.30;93.90
17066;DHT22;23120;52.336;21.182;2022-09-21T01:29:55;9.40;94.30
17066;DHT22;23120;52.336;21.182;2022-09-21T01:32:27;9.40;94.10
17066;DHT22;23120;52.336;21.182;2022-09-21T01:34:58;9.40;94.10
17066;DHT22;23120;52.336;21.182;2022-09-21T01:37:30;9.40;94.10
17066;DHT22;23120;52.336;21.182;2022-09-21T01:40:05;9.50;94.10
17066;DHT22;23120;52.336;21.182;2022-09-21T01:42:36;9.50;94.10
17066;DHT22;23120;52.336;21.182;2022-09-21T01:45:08;9.40;93.90
17066;DHT22;23120;52.336;21.182;2022-09-21T01:47:38;9.50;94.20
17066;DHT22;23120;52.336;21.182;2022-09-21T01:50:09;9.50;94.30
17066;DHT22;23120;52.336;21.182;2022-09-21T01:52:40;9.50;94.10
17066;DHT22;23120;52.336;21.182;2022-09-21T01:55:12;9.50;94.10
17066;DHT22;23120;52.336;21.182;2022-09-21T01:57:43;9.50;94.10
17066;DHT22;23120;52.336;21.182;2022-09-21T02:00:15;9.50;94.10
17066;DHT22;23120;52.336;21.182;2022-09-21T02:02:45;9.60;94.30
17066;DHT22;23120;52.336;21.182;2022-09-21T02:05:17;9.60;94.10
17066;DHT22;23120;52.336;21.182;2022-09-21T02:07:45;9.60;94.30
17066;DHT22;23120;52.336;21.182;2022-09-21T02:10:17;9.60;94.50
17066;DHT22;23120;52.336;21.182;2022-09-21T02:12:46;9.60;94.50
17066;DHT22;23120;52.336;21.182;2022-09-21T02:15:15;9.70;94.60
17066;DHT22;23120;52.336;21.182;2022-09-21T02:17:46;9.60;94.20
17066;DHT22;23120;52.336;21.182;2022-09-21T02:20:23;9.60;94.30
17066;DHT22;23120;52.336;21.182;2022-09-21T02:22:58;9.70;94.20
17066;DHT22;23120;52.336;21.182;2022-09-21T02:25:36;9.70;94.30
17066;DHT22;23120;52.336;21.182;2022-09-21T02:28:07;9.70;94.30
17066;DHT22;23120;52.336;21.182;2022-09-21T02:30:40;9.70;94.40
17066;DHT22;23120;52.336;21.182;2022-09-21T02:33:14;9.70;94.40
17066;DHT22;23120;52.336;21.182;2022-09-21T02:35:48;9.80;94.50
17066;DHT22;23120;52.336;21.182;2022-09-21T02:38:20;9.80;94.60
17066;DHT22;23120;52.336;21.182;2022-09-21T02:40:52;9.80;94.50
17066;DHT22;23120;52.336;21.182;2022-09-21T02:43:24;9.80;94.70
17066;DHT22;23120;52.336;21.182;2022-09-21T02:45:58;9.80;94.60
17066;DHT22;23120;52.336;21.182;2022-09-21T02:48:28;9.80;94.60
17066;DHT22;23120;52.336;21.182;2022-09-21T02:50:58;9.80;94.50
17066;DHT22;23120;52.336;21.182;2022-09-21T02:53:29;9.90;94.70
17066;DHT22;23120;52.336;21.182;2022-09-21T02:55:59;9.90;94.70
17066;DHT22;23120;52.336;21.182;2022-09-21T02:58:34;9.90;94.70
17066;DHT22;23120;52.336;21.182;2022-09-21T03:01:05;9.90;94.70
17066;DHT22;23120;52.336;21.182;2022-09-21T03:03:33;9.90;94.70
17066;DHT22;23120;52.336;21.182;2022-09-21T03:06:00;9.90;94.60
17066;DHT22;23120;52.336;21.182;2022-09-21T03:08:27;9.90;94.70
17066;DHT22;23120;52.336;21.182;2022-09-21T03:10:55;9.90;94.60
17066;DHT22;23120;52.336;21.182;2022-09-21T03:13:22;10.00;94.30
17066;DHT22;23120;52.336;21.182;2022-09-21T03:15:57;9.90;94.70
17066;DHT22;23120;52.336;21.182;2022-09-21T03:18:26;10.00;94.10
17066;DHT22;23120;52.336;21.182;2022-09-21T03:20:52;10.00;94.30
17066;DHT22;23120;52.336;21.182;2022-09-21T03:23:19;10.00;94.50
17066;DHT22;23120;52.336;21.182;2022-09-21T03:25:47;10.00;94.10
17066;DHT22;23120;52.336;21.182;2022-09-21T03:28:14;10.00;94.30
17066;DHT22;23120;52.336;21.182;2022-09-21T03:30:42;10.00;94.20
17066;DHT22;23120;52.336;21.182;2022-09-21T03:33:09;10.10;94.30
17066;DHT22;23120;52.336;21.182;2022-09-21T03:35:38;10.00;94.20
17066;DHT22;23120;52.336;21.182;2022-09-21T03:38:05;10.10;94.20
17066;DHT22;23120;52.336;21.182;2022-09-21T03:40:33;10.10;94.20
17066;DHT22;23120;52.336;21.182;2022-09-21T03:42:59;10.10;94.30
17066;DHT22;23120;52.336;21.182;2022-09-21T03:45:26;10.10;94.30
17066;DHT22;23120;52.336;21.182;2022-09-21T03:47:54;10.10;94.20
17066;DHT22;23120;52.336;21.182;2022-09-21T03:50:21;10.10;94.30
17066;DHT22;23120;52.336;21.182;2022-09-21T03:52:50;10.10;94.20
17066;DHT22;23120;52.336;21.182;2022-09-21T03:55:17;10.10;94.20
17066;DHT22;23120;52.336;21.182;2022-09-21T03:57:43;10.10;94.20
17066;DHT22;23120;52.336;21.182;2022-09-21T04:00:11;10.10;94.20
17066;DHT22;23120;52.336;21.182;2022-09-21T04:02:38;10.20;94.20
17066;DHT22;23120;52.336;21.182;2022-09-21T04:05:06;10.10;94.20
17066;DHT22;23120;52.336;21.182;2022-09-21T04:07:33;10.20;94.40
17066;DHT22;23120;52.336;21.182;2022-09-21T04:10:03;10.20;94.40
17066;DHT22;23120;52.336;21.182;2022-09-21T04:12:30;10.20;94.40
17066;DHT22;23120;52.336;21.182;2022-09-21T04:14:59;10.20;94.30
17066;DHT22;23120;52.336;21.182;2022-09-21T04:17:25;10.20;94.30
17066;DHT22;23120;52.336;21.182;2022-09-21T04:19:52;10.20;94.30
17066;DHT22;23120;52.336;21.182;2022-09-21T04:22:19;10.20;94.20
17066;DHT22;23120;52.336;21.182;2022-09-21T04:24:48;10.20;94.30
17066;DHT22;23120;52.336;21.182;2022-09-21T04:27:16;10.20;94.30
17066;DHT22;23120;52.336;21.182;2022-09-21T04:29:43;10.20;94.20
17066;DHT22;23120;52.336;21.182;2022-09-21T04:32:10;10.20;94.20
17066;DHT22;23120;52.336;21.182;2022-09-21T04:34:37;10.30;94.30
17066;DHT22;23120;52.336;21.182;2022-09-21T04:37:05;10.20;94.40
17066;DHT22;23120;52.336;21.182;2022-09-21T04:39:33;10.30;94.40
17066;DHT22;23120;52.336;21.182;2022-09-21T04:42:00;10.30;94.20
17066;DHT22;23120;52.336;21.182;2022-09-21T04:44:28;10.30;94.10
17066;DHT22;23120;52.336;21.182;2022-09-21T04:46:56;10.30;94.40
17066;DHT22;23120;52.336;21.182;2022-09-21T04:49:23;10.30;94.40
17066;DHT22;23120;52.336;21.182;2022-09-21T04:51:49;10.30;94.50
17066;DHT22;23120;52.336;21.182;2022-09-21T04:54:16;10.30;94.30
17066;DHT22;23120;52.336;21.182;2022-09-21T04:56:43;10.30;94.40
17066;DHT22;23120;52.336;21.182;2022-09-21T04:59:10;10.30;94.20
17066;DHT22;23120;52.336;21.182;2022-09-21T05:01:38;10.30;94.40
17066;DHT22;23120;52.336;21.182;2022-09-21T05:04:05;10.40;94.80
17066;DHT22;23120;52.336;21.182;2022-09-21T05:06:33;10.40;94.80
17066;DHT22;23120;52.336;21.182;2022-09-21T05:08:59;10.40;94.80
17066;DHT22;23120;52.336;21.182;2022-09-21T05:11:58;10.40;94.30
17066;DHT22;23120;52.336;21.182;2022-09-21T05:14:25;10.40;94.50
17066;DHT22;23120;52.336;21.182;2022-09-21T05:16:53;10.40;94.40
17066;DHT22;23120;52.336;21.182;2022-09-21T05:19:20;10.50;94.50
17066;DHT22;23120;52.336;21.182;2022-09-21T05:25:28;10.50;94.70
17066;DHT22;23120;52.336;21.182;2022-09-21T05:27:56;10.50;94.80
17066;DHT22;23120;52.336;21.182;2022-09-21T05:30:23;10.50;94.50
17066;DHT22;23120;52.336;21.182;2022-09-21T05:32:56;10.60;94.70
17066;DHT22;23120;52.336;21.182;2022-09-21T05:35:31;10.60;94.80
17066;DHT22;23120;52.336;21.182;2022-09-21T05:38:04;10.60;94.80
17066;DHT22;23120;52.336;21.182;2022-09-21T05:40:33;10.60;94.70
17066;DHT22;23120;52.336;21.182;2022-09-21T05:43:00;10.60;94.70
17066;DHT22;23120;52.336;21.182;2022-09-21T05:45:28;10.70;94.60
17066;DHT22;23120;52.336;21.182;2022-09-21T05:48:04;10.70;94.70
17066;DHT22;23120;52.336;21.182;2022-09-21T05:50:51;10.70;94.60
17066;DHT22;23120;52.336;21.182;2022-09-21T05:53:34;10.80;94.70
17066;DHT22;23120;52.336;21.182;2022-09-21T05:56:08;10.80;95.00
17066;DHT22;23120;52.336;21.182;2022-09-21T05:58:48;10.80;94.60
17066;DHT22;23120;52.336;21.182;2022-09-21T06:01:26;10.80;94.50
17066;DHT22;23120;52.336;21.182;2022-09-21T06:04:01;10.80;94.60
17066;DHT22;23120;52.336;21.182;2022-09-21T06:06:28;10.90;94.80
17066;DHT22;23120;52.336;21.182;2022-09-21T06:08:55;10.90;94.70
17066;DHT22;23120;52.336;21.182;2022-09-21T06:11:22;10.90;94.70
17066;DHT22;23120;52.336;21.182;2022-09-21T06:13:49;10.90;94.70
17066;DHT22;23120;52.336;21.182;2022-09-21T06:16:15;11.00;94.70
17066;DHT22;23120;52.336;21.182;2022-09-21T06:18:42;11.00;94.70
17066;DHT22;23120;52.336;21.182;2022-09-21T06:21:11;11.00;94.70
17066;DHT22;23120;52.336;21.182;2022-09-21T06:23:38;11.00;94.50
17066;DHT22;23120;52.336;21.182;2022-09-21T06:26:05;11.10;94.60
17066;DHT22;23120;52.336;21.182;2022-09-21T06:28:32;11.10;94.60
17066;DHT22;23120;52.336;21.182;2022-09-21T06:30:59;11.10;94.60
17066;DHT22;23120;52.336;21.182;2022-09-21T06:33:25;11.10;94.50
17066;DHT22;23120;52.336;21.182;2022-09-21T06:35:54;11.10;94.50
17066;DHT22;23120;52.336;21.182;2022-09-21T06:38:23;11.20;94.40
17066;DHT22;23120;52.336;21.182;2022-09-21T06:40:51;11.20;94.50
17066;DHT22;23120;52.336;21.182;2022-09-21T06:43:18;11.20;94.60
17066;DHT22;23120;52.336;21.182;2022-09-21T06:45:52;11.20;94.50
17066;DHT22;23120;52.336;21.182;2022-09-21T06:48:19;11.20;94.40
17066;DHT22;23120;52.336;21.182;2022-09-21T06:50:46;11.30;94.40
17066;DHT22;23120;52.336;21.182;2022-09-21T06:53:13;11.30;94.30
17066;DHT22;23120;52.336;21.182;2022-09-21T06:55:42;11.30;94.30
17066;DHT22;23120;52.336;21.182;2022-09-21T06:58:08;11.30;94.20
17066;DHT22;23120;52.336;21.182;2022-09-21T07:00:35;11.40;94.20
17066;DHT22;23120;52.336;21.182;2022-09-21T07:03:02;11.40;94.10
17066;DHT22;23120;52.336;21.182;2022-09-21T07:05:29;11.40;94.00
17066;DHT22;23120;52.336;21.182;2022-09-21T07:07:57;11.40;94.20
17066;DHT22;23120;52.336;21.182;2022-09-21T07:10:25;11.50;93.90
17066;DHT22;23120;52.336;21.182;2022-09-21T07:12:53;11.50;93.80
17066;DHT22;23120;52.336;21.182;2022-09-21T07:15:20;11.50;93.70
17066;DHT22;23120;52.336;21.182;2022-09-21T07:17:48;11.50;93.70
17066;DHT22;23120;52.336;21.182;2022-09-21T07:20:15;11.50;93.60
17066;DHT22;23120;52.336;21.182;2022-09-21T07:22:42;11.60;93.60
17066;DHT22;23120;52.336;21.182;2022-09-21T07:25:09;11.60;93.30
17066;DHT22;23120;52.336;21.182;2022-09-21T07:27:36;11.70;93.40
17066;DHT22;23120;52.336;21.182;2022-09-21T07:30:06;11.70;93.10
17066;DHT22;23120;52.336;21.182;2022-09-21T07:32:33;11.70;93.10
17066;DHT22;23120;52.336;21.182;2022-09-21T07:35:00;11.80;93.10
17066;DHT22;23120;52.336;21.182;2022-09-21T07:37:27;11.80;93.10
17066;DHT22;23120;52.336;21.182;2022-09-21T07:39:54;11.90;92.90
17066;DHT22;23120;52.336;21.182;2022-09-21T07:42:21;11.90;92.90
17066;DHT22;23120;52.336;21.182;2022-09-21T07:44:50;12.00;92.90
17066;DHT22;23120;52.336;21.182;2022-09-21T07:47:19;12.00;92.90
17066;DHT22;23120;52.336;21.182;2022-09-21T07:49:46;12.10;92.80
17066;DHT22;23120;52.336;21.182;2022-09-21T07:52:13;12.10;92.90
17066;DHT22;23120;52.336;21.182;2022-09-21T07:54:40;12.10;92.60
17066;DHT22;23120;52.336;21.182;2022-09-21T07:57:07;12.20;92.70
17066;DHT22;23120;52.336;21.182;2022-09-21T07:59:51;12.20;92.60
17066;DHT22;23120;52.336;21.182;2022-09-21T08:02:22;12.20;92.40
17066;DHT22;23120;52.336;21.182;2022-09-21T08:04:49;12.20;92.30
17066;DHT22;23120;52.336;21.182;2022-09-21T08:07:16;12.30;92.30
17066;DHT22;23120;52.336;21.182;2022-09-21T08:09:43;12.30;92.30
17066;DHT22;23120;52.336;21.182;2022-09-21T08:12:14;12.30;92.50
17066;DHT22;23120;52.336;21.182;2022-09-21T08:14:43;12.30;92.20
17066;DHT22;23120;52.336;21.182;2022-09-21T08:17:10;12.30;92.30
17066;DHT22;23120;52.336;21.182;2022-09-21T08:19:38;12.30;92.20
17066;DHT22;23120;52.336;21.182;2022-09-21T08:22:05;12.30;92.30
17066;DHT22;23120;52.336;21.182;2022-09-21T08:24:32;12.30;92.20
17066;DHT22;23120;52.336;21.182;2022-09-21T08:26:59;12.30;92.10
17066;DHT22;23120;52.336;21.182;2022-09-21T08:29:26;12.40;92.20
17066;DHT22;23120;52.336;21.182;2022-09-21T08:31:55;12.40;92.20
17066;DHT22;23120;52.336;21.182;2022-09-21T08:34:22;12.40;92.30
17066;DHT22;23120;52.336;21.182;2022-09-21T08:36:50;12.50;92.50
17066;DHT22;23120;52.336;21.182;2022-09-21T08:39:17;12.50;92.20
17066;DHT22;23120;52.336;21.182;2022-09-21T08:41:54;12.50;92.20
17066;DHT22;23120;52.336;21.182;2022-09-21T08:44:26;12.60;92.30
17066;DHT22;23120;52.336;21.182;2022-09-21T08:47:03;12.60;91.80
17066;DHT22;23120;52.336;21.182;2022-09-21T08:49:34;12.70;92.10
17066;DHT22;23120;52.336;21.182;2022-09-21T08:52:05;12.70;92.10
17066;DHT22;23120;52.336;21.182;2022-09-21T08:54:37;12.80;92.10
17066;DHT22;23120;52.336;21.182;2022-09-21T08:57:10;12.80;91.80
17066;DHT22;23120;52.336;21.182;2022-09-21T08:59:39;12.90;92.00
17066;DHT22;23120;52.336;21.182;2022-09-21T09:02:37;12.90;92.10
17066;DHT22;23120;52.336;21.182;2022-09-21T09:05:14;13.00;92.20
17066;DHT22;23120;52.336;21.182;2022-09-21T09:08:00;13.00;91.90
17066;DHT22;23120;52.336;21.182;2022-09-21T09:10:36;13.10;91.90
17066;DHT22;23120;52.336;21.182;2022-09-21T09:13:24;13.20;91.70
17066;DHT22;23120;52.336;21.182;2022-09-21T09:15:59;13.30;91.90
17066;DHT22;23120;52.336;21.182;2022-09-21T09:18:33;13.30;91.90
17066;DHT22;23120;52.336;21.182;2022-09-21T09:21:05;13.40;92.00
17066;DHT22;23120;52.336;21.182;2022-09-21T09:23:40;13.40;91.90
17066;DHT22;23120;52.336;21.182;2022-09-21T09:26:13;13.40;91.90
17066;DHT22;23120;52.336;21.182;2022-09-21T09:28:43;13.50;91.90
17066;DHT22;23120;52.336;21.182;2022-09-21T09:31:16;13.50;91.90
17066;DHT22;23120;52.336;21.182;2022-09-21T09:33:50;13.50;91.80
17066;DHT22;23120;52.336;21.182;2022-09-21T09:36:18;13.50;91.60
17066;DHT22;23120;52.336;21.182;2022-09-21T09:38:51;13.50;91.60
17066;DHT22;23120;52.336;21.182;2022-09-21T09:44:40;13.50;91.70
17066;DHT22;23120;52.336;21.182;2022-09-21T09:47:21;13.40;91.60
17066;DHT22;23120;52.336;21.182;2022-09-21T09:50:00;13.40;91.60
17066;DHT22;23120;52.336;21.182;2022-09-21T09:52:30;13.40;91.60
17066;DHT22;23120;52.336;21.182;2022-09-21T09:54:59;13.40;91.50
17066;DHT22;23120;52.336;21.182;2022-09-21T09:57:28;13.40;91.50
17066;DHT22;23120;52.336;21.182;2022-09-21T09:59:58;13.40;91.50
17066;DHT22;23120;52.336;21.182;2022-09-21T10:02:26;13.40;91.50
17066;DHT22;23120;52.336;21.182;2022-09-21T10:04:55;13.40;91.50
17066;DHT22;23120;52.336;21.182;2022-09-21T10:07:35;13.50;91.60
17066;DHT22;23120;52.336;21.182;2022-09-21T10:10:32;13.60;91.60
17066;DHT22;23120;52.336;21.182;2022-09-21T10:13:10;13.60;91.60
17066;DHT22;23120;52.336;21.182;2022-09-21T10:15:41;13.70;91.60
17066;DHT22;23120;52.336;21.182;2022-09-21T10:18:16;13.70;91.60
17066;DHT22;23120;52.336;21.182;2022-09-21T10:20:55;13.80;91.70
17066;DHT22;23120;52.336;21.182;2022-09-21T10:23:23;13.80;91.60
17066;DHT22;23120;52.336;21.182;2022-09-21T10:25:57;13.80;91.40
17066;DHT22;23120;52.336;21.182;2022-09-21T10:28:26;13.90;91.50
17066;DHT22;23120;52.336;21.182;2022-09-21T10:31:11;13.80;91.40
17066;DHT22;23120;52.336;21.182;2022-09-21T10:33:48;13.90;91.50
17066;DHT22;23120;52.336;21.182;2022-09-21T10:36:27;13.90;91.50
17066;DHT22;23120;52.336;21.182;2022-09-21T10:38:55;13.90;91.50
17066;DHT22;23120;52.336;21.182;2022-09-21T10:41:24;14.00;91.50
17066;DHT22;23120;52.336;21.182;2022-09-21T10:43:51;14.00;91.30
17066;DHT22;23120;52.336;21.182;2022-09-21T10:46:32;14.10;91.40
17066;DHT22;23120;52.336;21.182;2022-09-21T10:49:00;14.10;91.20
17066;DHT22;23120;52.336;21.182;2022-09-21T10:51:29;14.10;91.20
17066;DHT22;23120;52.336;21.182;2022-09-21T10:53:59;14.20;91.30
17066;DHT22;23120;52.336;21.182;2022-09-21T10:56:27;14.20;91.10
17066;DHT22;23120;52.336;21.182;2022-09-21T10:59:18;14.20;91.10
17066;DHT22;23120;52.336;21.182;2022-09-21T11:01:47;14.30;91.00
17066;DHT22;23120;52.336;21.182;2022-09-21T11:04:18;14.30;91.00
17066;DHT22;23120;52.336;21.182;2022-09-21T11:06:51;14.40;91.00
17066;DHT22;23120;52.336;21.182;2022-09-21T11:09:21;14.40;90.90
17066;DHT22;23120;52.336;21.182;2022-09-21T11:11:54;14.50;91.00
17066;DHT22;23120;52.336;21.182;2022-09-21T11:14:34;14.70;90.90
17066;DHT22;23120;52.336;21.182;2022-09-21T11:17:07;14.80;90.90
17066;DHT22;23120;52.336;21.182;2022-09-21T11:19:39;14.90;90.80
17066;DHT22;23120;52.336;21.182;2022-09-21T11:22:11;15.00;90.80
17066;DHT22;23120;52.336;21.182;2022-09-21T11:24:47;15.10;90.80
17066;DHT22;23120;52.336;21.182;2022-09-21T11:27:24;15.30;90.80
17066;DHT22;23120;52.336;21.182;2022-09-21T11:30:02;15.40;90.70
17066;DHT22;23120;52.336;21.182;2022-09-21T11:32:49;15.60;90.60
17066;DHT22;23120;52.336;21.182;2022-09-21T11:35:34;15.70;90.50
17066;DHT22;23120;52.336;21.182;2022-09-21T11:38:11;15.80;90.40
17066;DHT22;23120;52.336;21.182;2022-09-21T11:41:03;15.90;90.10
17066;DHT22;23120;52.336;21.182;2022-09-21T11:43:53;15.90;90.20
17066;DHT22;23120;52.336;21.182;2022-09-21T11:46:28;15.90;90.10
17066;DHT22;23120;52.336;21.182;2022-09-21T11:49:14;15.90;90.10
17066;DHT22;23120;52.336;21.182;2022-09-21T11:51:57;16.00;90.00
17066;DHT22;23120;52.336;21.182;2022-09-21T11:54:42;16.00;90.00
17066;DHT22;23120;52.336;21.182;2022-09-21T11:57:14;16.00;89.50
17066;DHT22;23120;52.336;21.182;2022-09-21T12:00:03;16.10;89.40
17066;DHT22;23120;52.336;21.182;2022-09-21T12:03:13;16.10;88.40
17066;DHT22;23120;52.336;21.182;2022-09-21T12:05:50;16.20;88.50
17066;DHT22;23120;52.336;21.182;2022-09-21T12:08:35;16.30;88.30
17066;DHT22;23120;52.336;21.182;2022-09-21T12:11:11;16.40;87.70
17066;DHT22;23120;52.336;21.182;2022-09-21T12:13:46;16.40;88.00
17066;DHT22;23120;52.336;21.182;2022-09-21T12:16:25;16.50;88.20
17066;DHT22;23120;52.336;21.182;2022-09-21T12:19:05;16.50;87.80
17066;DHT22;23120;52.336;21.182;2022-09-21T12:21:40;16.60;87.30
17066;DHT22;23120;52.336;21.182;2022-09-21T12:24:17;16.60;87.40
17066;DHT22;23120;52.336;21.182;2022-09-21T12:26:49;16.60;87.40
17066;DHT22;23120;52.336;21.182;2022-09-21T12:29:20;16.70;87.10
17066;DHT22;23120;52.336;21.182;2022-09-21T12:31:57;16.80;87.50
17066;DHT22;23120;52.336;21.182;2022-09-21T12:34:30;16.90;87.20
17066;DHT22;23120;52.336;21.182;2022-09-21T12:37:08;16.90;85.20
17066;DHT22;23120;52.336;21.182;2022-09-21T12:39:40;17.00;85.30
17066;DHT22;23120;52.336;21.182;2022-09-21T12:42:21;17.10;85.10
17066;DHT22;23120;52.336;21.182;2022-09-21T12:44:53;17.10;85.30
17066;DHT22;23120;52.336;21.182;2022-09-21T12:47:27;17.20;85.40
17066;DHT22;23120;52.336;21.182;2022-09-21T12:49:58;17.30;85.10
17066;DHT22;23120;52.336;21.182;2022-09-21T12:52:28;17.40;85.20
17066;DHT22;23120;52.336;21.182;2022-09-21T12:55:03;17.40;85.20
17066;DHT22;23120;52.336;21.182;2022-09-21T12:57:43;17.50;85.20
17066;DHT22;23120;52.336;21.182;2022-09-21T13:00:15;17.50;84.30
17066;DHT22;23120;52.336;21.182;2022-09-21T13:02:47;17.50;84.40
17066;DHT22;23120;52.336;21.182;2022-09-21T13:05:28;17.60;83.60
17066;DHT22;23120;52.336;21.182;2022-09-21T13:08:02;17.60;84.30
17066;DHT22;23120;52.336;21.182;2022-09-21T13:10:38;17.60;83.80
17066;DHT22;23120;52.336;21.182;2022-09-21T13:13:16;17.60;83.60
17066;DHT22;23120;52.336;21.182;2022-09-21T13:15:46;17.70;83.70
17066;DHT22;23120;52.336;21.182;2022-09-21T13:18:19;17.70;83.30
17066;DHT22;23120;52.336;21.182;2022-09-21T13:20:48;17.70;78.90
17066;DHT22;23120;52.336;21.182;2022-09-21T13:23:20;17.70;80.90
17066;DHT22;23120;52.336;21.182;2022-09-21T13:26:01;17.80;80.80
17066;DHT22;23120;52.336;21.182;2022-09-21T13:29:02;17.80;77.40
17066;DHT22;23120;52.336;21.182;2022-09-21T13:31:42;17.80;80.60
17066;DHT22;23120;52.336;21.182;2022-09-21T13:34:29;17.90;80.70
17066;DHT22;23120;52.336;21.182;2022-09-21T13:37:24;17.90;80.10
17066;DHT22;23120;52.336;21.182;2022-09-21T13:43:21;17.90;75.00
17066;DHT22;23120;52.336;21.182;2022-09-21T13:45:56;17.50;66.80
17066;DHT22;23120;52.336;21.182;2022-09-21T13:48:27;17.30;69.50
17066;DHT22;23120;52.336;21.182;2022-09-21T13:51:07;17.20;71.00
17066;DHT22;23120;52.336;21.182;2022-09-21T13:53:38;17.30;70.00
17066;DHT22;23120;52.336;21.182;2022-09-21T13:56:17;17.00;68.30
17066;DHT22;23120;52.336;21.182;2022-09-21T13:58:47;17.00;69.60
17066;DHT22;23120;52.336;21.182;2022-09-21T14:01:18;17.10;72.90
17066;DHT22;23120;52.336;21.182;2022-09-21T14:03:49;17.20;73.70
17066;DHT22;23120;52.336;21.182;2022-09-21T14:06:21;17.20;73.00
17066;DHT22;23120;52.336;21.182;2022-09-21T14:08:54;17.20;72.60
17066;DHT22;23120;52.336;21.182;2022-09-21T14:11:28;17.20;72.60
17066;DHT22;23120;52.336;21.182;2022-09-21T14:14:04;17.20;72.70
17066;DHT22;23120;52.336;21.182;2022-09-21T14:16:52;17.10;70.10
17066;DHT22;23120;52.336;21.182;2022-09-21T14:22:42;17.20;73.40
17066;DHT22;23120;52.336;21.182;2022-09-21T14:25:45;17.30;72.30
17066;DHT22;23120;52.336;21.182;2022-09-21T14:28:13;17.40;73.50
17066;DHT22;23120;52.336;21.182;2022-09-21T14:30:48;17.50;72.00
17066;DHT22;23120;52.336;21.182;2022-09-21T14:33:26;17.50;71.90
17066;DHT22;23120;52.336;21.182;2022-09-21T14:35:55;17.50;72.90
17066;DHT22;23120;52.336;21.182;2022-09-21T14:38:27;17.50;72.70
17066;DHT22;23120;52.336;21.182;2022-09-21T14:40:57;17.50;72.30
17066;DHT22;23120;52.336;21.182;2022-09-21T14:43:28;17.50;72.60
17066;DHT22;23120;52.336;21.182;2022-09-21T14:46:07;17.60;72.60
17066;DHT22;23120;52.336;21.182;2022-09-21T14:48:46;17.50;73.00
17066;DHT22;23120;52.336;21.182;2022-09-21T14:51:21;17.40;72.60
17066;DHT22;23120;52.336;21.182;2022-09-21T14:54:06;17.30;72.10
17066;DHT22;23120;52.336;21.182;2022-09-21T14:56:45;17.30;72.50
17066;DHT22;23120;52.336;21.182;2022-09-21T14:59:37;17.20;72.80
17066;DHT22;23120;52.336;21.182;2022-09-21T15:02:16;17.20;73.10
17066;DHT22;23120;52.336;21.182;2022-09-21T15:04:56;17.20;73.20
17066;DHT22;23120;52.336;21.182;2022-09-21T15:07:35;17.20;73.60
17066;DHT22;23120;52.336;21.182;2022-09-21T15:10:26;17.20;74.20
17066;DHT22;23120;52.336;21.182;2022-09-21T15:13:18;17.20;74.30
17066;DHT22;23120;52.336;21.182;2022-09-21T15:15:58;17.30;74.60
17066;DHT22;23120;52.336;21.182;2022-09-21T15:18:27;17.40;74.50
17066;DHT22;23120;52.336;21.182;2022-09-21T15:20:56;17.40;74.50
17066;DHT22;23120;52.336;21.182;2022-09-21T15:23:27;17.50;74.80
17066;DHT22;23120;52.336;21.182;2022-09-21T15:26:01;17.40;74.80
17066;DHT22;23120;52.336;21.182;2022-09-21T15:28:33;17.20;75.10
17066;DHT22;23120;52.336;21.182;2022-09-21T15:31:01;16.90;72.90
17066;DHT22;23120;52.336;21.182;2022-09-21T15:33:28;16.80;71.60
17066;DHT22;23120;52.336;21.182;2022-09-21T15:36:00;16.60;73.60
17066;DHT22;23120;52.336;21.182;2022-09-21T15:38:28;16.70;74.10
17066;DHT22;23120;52.336;21.182;2022-09-21T15:40:57;16.70;74.30
17066;DHT22;23120;52.336;21.182;2022-09-21T15:43:24;16.60;73.50
17066;DHT22;23120;52.336;21.182;2022-09-21T15:45:53;16.50;74.10
17066;DHT22;23120;52.336;21.182;2022-09-21T15:48:20;16.50;74.40
17066;DHT22;23120;52.336;21.182;2022-09-21T15:51:00;16.40;74.40
17066;DHT22;23120;52.336;21.182;2022-09-21T15:53:32;16.40;74.60
17066;DHT22;23120;52.336;21.182;2022-09-21T15:56:02;16.20;75.80
17066;DHT22;23120;52.336;21.182;2022-09-21T15:58:31;16.20;76.40
17066;DHT22;23120;52.336;21.182;2022-09-21T16:01:00;16.00;76.60
17066;DHT22;23120;52.336;21.182;2022-09-21T16:03:28;15.90;77.00
17066;DHT22;23120;52.336;21.182;2022-09-21T16:05:55;15.70;76.90
17066;DHT22;23120;52.336;21.182;2022-09-21T16:08:28;15.60;77.40